createdAt,value
2019-02-04T00:01:26.062Z,11.12
2019-02-04T00:03:53.971Z,9.60
2019-02-04T00:06:21.478Z,10.20
2019-02-04T00:08:48.787Z,12.45
2019-02-04T00:11:16.489Z,13.32
2019-02-04T00:13:43.916Z,10.32
2019-02-04T00:16:11.407Z,11.50
2019-02-04T00:18:38.689Z,13.13
2019-02-04T00:21:06.092Z,9.98
2019-02-04T00:23:33.460Z,11.63
2019-02-04T00:26:00.788Z,9.83
2019-02-04T00:28:28.429Z,9.78
2019-02-04T00:30:55.824Z,8.43
2019-02-04T00:33:23.138Z,9.85
2019-02-04T00:35:50.547Z,11.10
2019-02-04T00:38:17.868Z,11.20
2019-02-04T00:40:45.257Z,9.88
2019-02-04T00:43:12.926Z,9.60
2019-02-04T00:45:40.268Z,12.25
2019-02-04T00:48:07.579Z,10.43
2019-02-04T00:50:34.999Z,7.95
2019-02-04T00:53:02.401Z,9.78
2019-02-04T00:55:29.788Z,9.63
2019-02-04T00:57:57.081Z,12.70
2019-02-04T01:00:27.050Z,8.60
2019-02-04T01:02:54.567Z,9.48
2019-02-04T01:05:22.154Z,9.33
2019-02-04T01:07:49.765Z,11.10
2019-02-04T01:10:20.153Z,12.85
2019-02-04T01:12:48.002Z,10.15
2019-02-04T01:15:15.733Z,7.80
2019-02-04T01:17:43.201Z,9.83
2019-02-04T01:20:11.577Z,9.90
2019-02-04T01:22:39.627Z,12.82
2019-02-04T01:25:08.770Z,12.13
2019-02-04T01:27:36.170Z,10.13
2019-02-04T01:30:04.723Z,12.45
2019-02-04T01:32:32.057Z,10.20
2019-02-04T01:34:59.487Z,12.70
2019-02-04T01:37:26.910Z,11.45
2019-02-04T01:39:54.300Z,11.70
2019-02-04T01:42:22.230Z,7.90
2019-02-04T01:44:49.643Z,10.38
2019-02-04T01:47:17.349Z,10.48
2019-02-04T01:49:44.760Z,12.07
2019-02-04T01:52:12.166Z,11.15
2019-02-04T01:54:39.588Z,10.50
2019-02-04T01:57:06.971Z,10.18
2019-02-04T01:59:34.295Z,11.30
2019-02-04T02:02:01.660Z,10.53
2019-02-04T02:04:29.014Z,9.75
2019-02-04T02:06:56.393Z,11.28
2019-02-04T02:09:24.200Z,12.37
2019-02-04T02:11:51.688Z,12.60
2019-02-04T02:14:19.476Z,11.95
2019-02-04T02:16:46.911Z,10.63
2019-02-04T02:19:14.233Z,15.55
2019-02-04T02:21:41.641Z,12.82
2019-02-04T02:24:09.061Z,10.85
2019-02-04T02:26:36.279Z,12.43
2019-02-04T02:29:03.663Z,11.03
2019-02-04T02:31:31.251Z,10.48
2019-02-04T02:33:58.704Z,11.43
2019-02-04T02:36:26.127Z,13.62
2019-02-04T02:38:53.882Z,11.35
2019-02-04T02:41:21.281Z,13.05
2019-02-04T02:43:48.649Z,12.90
2019-02-04T02:46:16.047Z,10.72
2019-02-04T02:48:43.991Z,11.60
2019-02-04T02:51:11.354Z,11.83
2019-02-04T02:53:38.767Z,13.22
2019-02-04T02:56:06.070Z,14.35
2019-02-04T02:58:33.475Z,13.20
2019-02-04T03:01:00.751Z,13.60
2019-02-04T03:03:28.088Z,12.73
2019-02-04T03:05:55.903Z,13.68
2019-02-04T03:08:23.300Z,16.20
2019-02-04T03:10:50.665Z,13.22
2019-02-04T03:13:18.096Z,13.35
2019-02-04T03:15:45.403Z,11.57
2019-02-04T03:18:12.705Z,12.18
2019-02-04T03:20:40.138Z,11.93
2019-02-04T03:23:07.905Z,14.90
2019-02-04T03:25:35.336Z,13.30
2019-02-04T03:28:02.755Z,15.83
2019-02-04T03:30:32.339Z,16.62
2019-02-04T03:32:59.821Z,17.07
2019-02-04T03:35:27.191Z,14.63
2019-02-04T03:37:54.624Z,13.85
2019-02-04T03:40:24.299Z,17.12
2019-02-04T03:42:51.721Z,13.18
2019-02-04T03:45:19.046Z,16.80
2019-02-04T03:47:46.429Z,14.98
2019-02-04T03:50:14.055Z,14.10
2019-02-04T03:52:41.475Z,14.40
2019-02-04T03:55:09.935Z,13.85
2019-02-04T03:57:37.396Z,12.43
2019-02-04T04:00:09.376Z,16.12
2019-02-04T04:02:36.767Z,19.67
2019-02-04T04:05:04.397Z,18.07
2019-02-04T04:07:31.783Z,14.20
2019-02-04T04:09:59.589Z,15.70
2019-02-04T04:12:26.849Z,14.28
2019-02-04T04:14:54.320Z,15.55
2019-02-04T04:17:21.710Z,12.82
2019-02-04T04:19:49.158Z,15.85
2019-02-04T04:22:16.464Z,16.73
2019-02-04T04:24:43.843Z,15.95
2019-02-04T04:27:11.572Z,15.98
2019-02-04T04:29:38.907Z,17.73
2019-02-04T04:32:06.348Z,20.02
2019-02-04T04:34:33.733Z,15.60
2019-02-04T04:37:01.130Z,15.98
2019-02-04T04:39:28.523Z,14.83
2019-02-04T04:41:55.911Z,13.75
2019-02-04T04:44:23.641Z,14.70
2019-02-04T04:46:51.027Z,19.82
2019-02-04T04:49:18.330Z,17.98
2019-02-04T04:51:45.788Z,15.48
2019-02-04T04:54:13.179Z,17.57
2019-02-04T04:56:40.792Z,14.25
2019-02-04T04:59:08.078Z,14.98
2019-02-04T05:01:35.598Z,12.50
2019-02-04T05:04:03.222Z,15.75
2019-02-04T05:06:30.631Z,14.75
2019-02-04T05:08:57.934Z,16.73
2019-02-04T05:11:25.324Z,16.80
2019-02-04T05:13:52.708Z,15.13
2019-02-04T05:16:19.994Z,16.93
2019-02-04T05:18:47.614Z,16.42
2019-02-04T05:21:15.007Z,16.57
2019-02-04T05:23:42.320Z,15.80
2019-02-04T05:26:09.613Z,15.88
2019-02-04T05:28:36.932Z,17.73
2019-02-04T05:31:04.370Z,14.95
2019-02-04T05:33:32.073Z,15.93
2019-02-04T05:35:59.464Z,16.20
2019-02-04T05:38:26.872Z,16.35
2019-02-04T05:40:54.295Z,16.45
2019-02-04T05:43:21.638Z,15.85
2019-02-04T05:45:49.050Z,16.25
2019-02-04T05:48:16.474Z,19.10
2019-02-04T05:50:43.810Z,17.55
2019-02-04T05:53:11.190Z,15.13
2019-02-04T05:55:38.852Z,15.80
2019-02-04T05:58:06.474Z,22.93
2019-02-04T06:00:37.553Z,18.30
2019-02-04T06:03:05.307Z,16.05
2019-02-04T06:05:32.744Z,14.58
2019-02-04T06:08:00.701Z,18.95
2019-02-04T06:10:28.004Z,14.60
2019-02-04T06:12:55.340Z,16.52
2019-02-04T06:15:23.272Z,15.18
2019-02-04T06:17:50.591Z,15.95
2019-02-04T06:20:19.436Z,16.55
2019-02-04T06:22:46.797Z,16.48
2019-02-04T06:25:14.230Z,14.93
2019-02-04T06:27:41.615Z,14.60
2019-02-04T06:30:10.184Z,13.78
2019-02-04T06:32:37.588Z,13.55
2019-02-04T06:35:05.208Z,17.82
2019-02-04T06:37:32.608Z,15.03
2019-02-04T06:40:00.423Z,13.30
2019-02-04T06:42:27.885Z,12.45
2019-02-04T06:44:55.178Z,15.00
2019-02-04T06:47:22.592Z,15.03
2019-02-04T06:49:50.103Z,14.95
2019-02-04T06:52:17.632Z,14.63
2019-02-04T06:54:45.092Z,18.80
2019-02-04T06:57:12.853Z,25.70
2019-02-04T06:59:40.252Z,13.53
2019-02-04T07:02:07.560Z,14.95
2019-02-04T07:04:35.333Z,15.90
2019-02-04T07:07:02.764Z,16.62
2019-02-04T07:09:30.199Z,17.65
2019-02-04T07:11:57.600Z,13.18
2019-02-04T07:14:25.147Z,15.95
2019-02-04T07:16:52.556Z,17.40
2019-02-04T07:19:24.503Z,16.17
2019-02-04T07:21:49.199Z,13.53
2019-02-04T07:24:16.591Z,15.98
2019-02-04T07:26:44.025Z,13.22
2019-02-04T07:29:11.470Z,16.12
2019-02-04T07:31:38.840Z,16.55
2019-02-04T07:34:06.158Z,16.30
2019-02-04T07:36:33.463Z,13.70
2019-02-04T07:39:00.857Z,15.98
2019-02-04T07:41:28.572Z,14.65
2019-02-04T07:43:55.916Z,17.77
2019-02-04T07:46:24.997Z,16.62
2019-02-04T07:48:52.553Z,22.90
2019-02-04T07:51:19.968Z,18.73
2019-02-04T07:53:47.303Z,20.92
2019-02-04T07:56:14.730Z,18.25
2019-02-04T07:58:42.053Z,15.18
2019-02-04T08:01:09.439Z,20.00
2019-02-04T08:03:36.835Z,22.25
2019-02-04T08:06:04.212Z,19.00
2019-02-04T08:08:31.956Z,17.85
2019-02-04T08:10:59.664Z,17.00
2019-02-04T08:13:27.080Z,13.88
2019-02-04T08:15:54.479Z,17.82
2019-02-04T08:18:21.941Z,17.37
2019-02-04T08:20:49.390Z,16.42
2019-02-04T08:23:16.786Z,20.15
2019-02-04T08:25:44.204Z,18.40
2019-02-04T08:28:11.635Z,19.70
2019-02-04T08:30:39.023Z,17.25
2019-02-04T08:33:06.745Z,19.40
2019-02-04T08:35:34.058Z,18.90
2019-02-04T08:38:01.518Z,16.27
2019-02-04T08:40:29.165Z,22.52
2019-02-04T08:42:56.808Z,24.30
2019-02-04T08:45:24.233Z,23.98
2019-02-04T08:47:51.655Z,16.90
2019-02-04T08:50:20.206Z,20.77
2019-02-04T08:52:47.669Z,22.05
2019-02-04T08:55:15.149Z,17.82
2019-02-04T08:57:42.576Z,23.57
2019-02-04T09:00:13.370Z,20.12
2019-02-04T09:02:40.771Z,23.60
2019-02-04T09:05:08.822Z,20.88
2019-02-04T09:07:36.257Z,19.57
2019-02-04T09:10:04.857Z,16.05
2019-02-04T09:12:32.257Z,17.37
2019-02-04T09:14:59.677Z,20.25
2019-02-04T09:17:27.486Z,19.23
2019-02-04T09:19:54.895Z,17.57
2019-02-04T09:22:22.327Z,23.35
2019-02-04T09:24:49.767Z,17.05
2019-02-04T09:27:17.208Z,19.25
2019-02-04T09:29:44.640Z,20.77
2019-02-04T09:32:12.079Z,20.32
2019-02-04T09:34:39.604Z,18.30
2019-02-04T09:37:07.733Z,19.35
2019-02-04T09:39:35.138Z,17.55
2019-02-04T09:42:02.552Z,20.12
2019-02-04T09:44:29.965Z,23.60
2019-02-04T09:46:57.372Z,23.40
2019-02-04T09:49:24.787Z,26.25
2019-02-04T09:51:52.154Z,25.17
2019-02-04T09:54:20.041Z,23.35
2019-02-04T09:56:47.479Z,24.20
2019-02-04T09:59:14.899Z,26.75
2019-02-04T10:01:42.329Z,25.92
2019-02-04T10:04:09.719Z,31.15
2019-02-04T10:06:37.035Z,25.10
2019-02-04T10:09:07.601Z,24.18
2019-02-04T10:11:35.038Z,26.90
2019-02-04T10:14:02.449Z,23.42
2019-02-04T10:16:29.904Z,23.45
2019-02-04T10:18:57.359Z,20.20
2019-02-04T10:21:25.104Z,22.80
2019-02-04T10:23:52.504Z,23.45
2019-02-04T10:26:20.506Z,22.95
2019-02-04T10:28:47.917Z,19.50
2019-02-04T10:31:15.333Z,21.82
2019-02-04T10:33:42.717Z,18.67
2019-02-04T10:36:10.047Z,21.97
2019-02-04T10:38:37.474Z,19.67
2019-02-04T10:41:04.910Z,19.23
2019-02-04T10:43:32.879Z,21.12
2019-02-04T10:46:00.322Z,22.13
2019-02-04T10:48:27.886Z,22.95
2019-02-04T10:50:55.371Z,19.25
2019-02-04T10:53:22.777Z,19.70
2019-02-04T10:55:50.305Z,16.27
2019-02-04T10:58:17.691Z,19.00
2019-02-04T11:00:45.657Z,25.85
2019-02-04T11:03:13.048Z,20.40
2019-02-04T11:05:40.926Z,18.37
2019-02-04T11:08:09.520Z,19.42
2019-02-04T11:10:37.252Z,20.40
2019-02-04T11:13:08.146Z,19.02
2019-02-04T11:15:36.197Z,20.77
2019-02-04T11:18:04.188Z,19.60
2019-02-04T11:20:31.883Z,20.30
2019-02-04T11:22:59.369Z,18.60
2019-02-04T11:25:26.856Z,18.60
2019-02-04T11:27:54.284Z,16.42
2019-02-04T11:30:29.947Z,18.65
2019-02-04T11:32:57.635Z,20.23
2019-02-04T11:35:25.147Z,14.60
2019-02-04T11:37:52.589Z,18.40
2019-02-04T11:40:23.258Z,17.12
2019-02-04T11:42:50.674Z,19.50
2019-02-04T11:45:18.250Z,14.83
2019-02-04T11:47:46.109Z,19.12
2019-02-04T11:50:13.756Z,19.20
2019-02-04T11:52:41.174Z,19.48
2019-02-04T11:55:09.397Z,19.45
2019-02-04T11:57:36.829Z,21.10
2019-02-04T12:00:06.659Z,17.92
2019-02-04T12:02:34.897Z,16.87
2019-02-04T12:05:02.658Z,17.82
2019-02-04T12:07:30.108Z,17.55
2019-02-04T12:09:57.523Z,20.20
2019-02-04T12:12:24.932Z,16.85
2019-02-04T12:14:52.290Z,16.12
2019-02-04T12:17:19.741Z,17.85
2019-02-04T12:19:47.165Z,18.77
2019-02-04T12:22:14.695Z,17.77
2019-02-04T12:24:42.094Z,20.80
2019-02-04T12:27:09.578Z,17.30
2019-02-04T12:29:37.100Z,16.55
2019-02-04T12:32:05.203Z,20.52
2019-02-04T12:34:32.639Z,21.23
2019-02-04T12:37:00.119Z,17.05
2019-02-04T12:39:27.561Z,18.45
2019-02-04T12:41:55.013Z,20.23
2019-02-04T12:44:22.473Z,16.45
2019-02-04T12:46:50.426Z,20.35
2019-02-04T12:49:19.921Z,17.57
2019-02-04T12:51:47.114Z,15.95
2019-02-04T12:54:14.570Z,17.45
2019-02-04T12:56:42.009Z,19.55
2019-02-04T12:59:09.796Z,13.22
2019-02-04T13:01:37.238Z,12.25
2019-02-04T13:04:04.760Z,13.85
2019-02-04T13:06:32.176Z,13.35
2019-02-04T13:08:59.633Z,10.85
2019-02-04T13:11:27.350Z,11.83
2019-02-04T13:13:54.766Z,10.93
2019-02-04T13:16:22.572Z,13.35
2019-02-04T13:18:51.315Z,8.73
2019-02-04T13:21:18.760Z,8.65
2019-02-04T13:23:46.248Z,9.45
2019-02-04T13:26:13.668Z,10.98
2019-02-04T13:28:41.576Z,11.28
2019-02-04T13:31:09.027Z,7.90
2019-02-04T13:33:36.511Z,8.90
2019-02-04T13:36:04.628Z,8.20
2019-02-04T13:38:32.076Z,9.23
2019-02-04T13:41:07.553Z,10.85
2019-02-04T13:43:28.836Z,8.48
2019-02-04T13:45:57.454Z,9.78
2019-02-04T13:48:24.942Z,9.20
2019-02-04T13:50:52.386Z,10.32
2019-02-04T13:53:19.854Z,9.40
2019-02-04T13:55:47.267Z,10.58
2019-02-04T13:58:14.610Z,10.18
2019-02-04T14:00:41.963Z,10.95
2019-02-04T14:03:09.859Z,10.18
2019-02-04T14:05:37.693Z,11.08
2019-02-04T14:08:05.626Z,11.45
2019-02-04T14:10:35.194Z,10.98
2019-02-04T14:13:03.365Z,10.53
2019-02-04T14:15:31.287Z,10.50
2019-02-04T14:17:58.836Z,8.93
2019-02-04T14:20:26.326Z,9.20
2019-02-04T14:22:54.275Z,10.00
2019-02-04T14:25:22.141Z,10.03
2019-02-04T14:27:49.743Z,10.05
2019-02-04T14:30:19.789Z,9.60
2019-02-04T14:32:47.839Z,11.73
2019-02-04T14:35:15.593Z,10.70
2019-02-04T14:37:45.104Z,9.45
2019-02-04T14:40:18.511Z,10.10
2019-02-04T14:42:43.641Z,9.00
2019-02-04T14:45:44.964Z,9.15
2019-02-04T14:48:53.238Z,10.65
2019-02-04T14:51:57.816Z,10.72
2019-02-04T14:54:38.349Z,9.85
2019-02-04T14:57:19.332Z,9.38
2019-02-04T15:00:17.173Z,10.98
2019-02-04T15:03:19.210Z,11.83
2019-02-04T15:06:11.236Z,13.20
2019-02-04T15:09:26.265Z,10.35
2019-02-04T15:12:29.488Z,10.32
2019-02-04T15:16:09.352Z,11.15
2019-02-04T15:19:43.156Z,12.30
2019-02-04T15:22:52.366Z,10.48
2019-02-04T15:25:50.186Z,9.35
2019-02-04T15:28:45.188Z,10.98
2019-02-04T15:31:45.918Z,9.90
2019-02-04T15:34:25.419Z,14.28
2019-02-04T15:37:37.454Z,10.53
2019-02-04T15:40:17.734Z,10.05
2019-02-04T15:43:07.909Z,11.10
2019-02-04T15:46:12.103Z,10.10
2019-02-04T15:48:55.697Z,11.35
2019-02-04T15:51:40.922Z,13.85
2019-02-04T15:54:08.748Z,11.85
2019-02-04T15:56:36.169Z,12.65
2019-02-04T15:59:03.807Z,11.83
2019-02-04T16:01:31.271Z,14.10
2019-02-04T16:03:58.909Z,13.03
2019-02-04T16:06:26.635Z,12.55
2019-02-04T16:08:54.033Z,13.05
2019-02-04T16:11:21.527Z,12.50
2019-02-04T16:13:48.982Z,12.68
2019-02-04T16:16:16.329Z,13.15
2019-02-04T16:18:43.794Z,14.25
2019-02-04T16:21:11.289Z,13.83
2019-02-04T16:23:38.807Z,15.60
2019-02-04T16:26:06.754Z,16.50
2019-02-04T16:28:34.500Z,12.55
2019-02-04T16:31:02.018Z,13.80
2019-02-04T16:33:29.484Z,16.75
2019-02-04T16:35:57.001Z,16.20
2019-02-04T16:38:24.432Z,16.00
2019-02-04T16:40:51.851Z,16.97
2019-02-04T16:43:19.328Z,23.10
2019-02-04T16:45:46.752Z,52.65
2019-02-04T16:48:14.211Z,55.10
2019-02-04T16:50:41.689Z,42.33
2019-02-04T16:53:10.811Z,35.65
2019-02-04T16:55:38.456Z,29.35
2019-02-04T16:58:07.017Z,24.45
2019-02-04T17:00:34.554Z,18.98
2019-02-04T17:03:01.980Z,21.30
2019-02-04T17:05:29.681Z,20.88
2019-02-04T17:07:57.078Z,17.23
2019-02-04T17:10:25.048Z,14.83
2019-02-04T17:12:52.430Z,18.75
2019-02-04T17:15:20.086Z,36.53
2019-02-04T17:17:48.423Z,29.85
2019-02-04T17:20:18.689Z,21.35
2019-02-04T17:22:46.182Z,20.80
2019-02-04T17:25:13.641Z,24.75
2019-02-04T17:27:41.450Z,26.15
2019-02-04T17:30:12.518Z,27.82
2019-02-04T17:32:40.179Z,39.90
2019-02-04T17:35:07.769Z,42.35
2019-02-04T17:37:36.230Z,23.00
2019-02-04T17:40:05.929Z,18.25
2019-02-04T17:42:33.390Z,18.37
2019-02-04T17:45:00.851Z,18.85
2019-02-04T17:47:28.844Z,17.15
2019-02-04T17:49:56.267Z,20.20
2019-02-04T17:52:23.896Z,23.67
2019-02-04T17:54:51.406Z,18.73
2019-02-04T17:57:18.871Z,20.17
2019-02-04T17:59:46.471Z,19.55
2019-02-04T18:02:13.879Z,18.80
2019-02-04T18:04:41.383Z,19.12
2019-02-04T18:07:09.151Z,18.30
2019-02-04T18:09:36.598Z,20.68
2019-02-04T18:12:04.319Z,28.07
2019-02-04T18:14:31.955Z,20.72
2019-02-04T18:16:59.483Z,21.48
2019-02-04T18:19:27.280Z,18.67
2019-02-04T18:21:55.780Z,19.67
2019-02-04T18:24:23.315Z,21.37
2019-02-04T18:26:53.123Z,21.97
2019-02-04T18:29:20.660Z,22.05
2019-02-04T18:31:48.196Z,18.67
2019-02-04T18:34:15.635Z,21.55
2019-02-04T18:36:43.120Z,20.12
2019-02-04T18:39:11.226Z,16.60
2019-02-04T18:41:38.795Z,17.50
2019-02-04T18:44:06.278Z,16.25
2019-02-04T18:46:34.142Z,14.35
2019-02-04T18:49:01.597Z,17.20
2019-02-04T18:51:29.258Z,16.67
2019-02-04T18:53:58.046Z,16.57
2019-02-04T18:56:26.211Z,17.55
2019-02-04T18:58:53.983Z,17.23
2019-02-04T19:01:21.498Z,15.08
2019-02-04T19:03:49.066Z,15.15
2019-02-04T19:06:16.573Z,14.30
2019-02-04T19:08:44.992Z,18.15
2019-02-04T19:11:12.863Z,16.00
2019-02-04T19:13:40.353Z,14.30
2019-02-04T19:16:07.891Z,14.28
2019-02-04T19:18:35.418Z,15.72
2019-02-04T19:21:03.006Z,27.10
2019-02-04T19:23:30.598Z,15.25
2019-02-04T19:25:58.503Z,17.20
2019-02-04T19:28:26.036Z,15.05
2019-02-04T19:31:01.670Z,16.30
2019-02-04T19:33:29.295Z,15.18
2019-02-04T19:35:56.824Z,14.28
2019-02-04T19:38:24.702Z,15.90
2019-02-04T19:40:52.558Z,13.62
2019-02-04T19:43:20.408Z,16.37
2019-02-04T19:45:49.147Z,16.23
2019-02-04T19:48:16.785Z,18.00
2019-02-04T19:50:44.336Z,18.65
2019-02-04T19:53:11.942Z,14.33
2019-02-04T19:55:39.411Z,16.02
2019-02-04T19:58:07.258Z,18.27
2019-02-04T20:00:34.712Z,18.17
2019-02-04T20:03:02.319Z,17.02
2019-02-04T20:05:29.913Z,15.25
2019-02-04T20:07:57.400Z,15.40
2019-02-04T20:10:26.645Z,14.80
2019-02-04T20:12:54.148Z,14.45
2019-02-04T20:15:24.023Z,14.90
2019-02-04T20:17:51.771Z,16.05
2019-02-04T20:20:19.455Z,16.25
2019-02-04T20:22:46.911Z,14.55
2019-02-04T20:25:17.194Z,17.65
2019-02-04T20:27:44.718Z,15.98
2019-02-04T20:30:15.991Z,16.12
2019-02-04T20:32:44.408Z,16.20
2019-02-04T20:35:12.153Z,15.45
2019-02-04T20:37:39.611Z,16.65
2019-02-04T20:40:08.409Z,14.85
2019-02-04T20:42:35.891Z,15.95
2019-02-04T20:45:04.915Z,18.12
2019-02-04T20:47:32.440Z,17.05
2019-02-04T20:50:00.340Z,16.27
2019-02-04T20:52:27.770Z,16.25
2019-02-04T20:54:55.227Z,15.23
2019-02-04T20:57:22.990Z,14.50
2019-02-04T20:59:50.512Z,16.00
2019-02-04T21:02:18.321Z,15.13
2019-02-04T21:04:45.810Z,14.00
2019-02-04T21:07:13.515Z,17.80
2019-02-04T21:09:41.314Z,14.73
2019-02-04T21:12:08.925Z,16.42
2019-02-04T21:14:36.358Z,14.65
2019-02-04T21:17:03.896Z,14.98
2019-02-04T21:19:31.419Z,15.05
2019-02-04T21:21:58.891Z,15.95
2019-02-04T21:24:26.664Z,15.95
2019-02-04T21:26:54.634Z,13.15
2019-02-04T21:29:22.422Z,15.03
2019-02-04T21:31:49.875Z,14.80
2019-02-04T21:34:17.358Z,14.60
2019-02-04T21:36:45.144Z,12.47
2019-02-04T21:39:12.923Z,13.00
2019-02-04T21:41:40.341Z,12.75
2019-02-04T21:44:07.804Z,13.20
2019-02-04T21:46:35.289Z,15.35
2019-02-04T21:49:02.840Z,14.33
2019-02-04T21:51:30.295Z,14.65
2019-02-04T21:53:57.704Z,17.02
2019-02-04T21:56:25.152Z,16.85
2019-02-04T21:58:52.718Z,15.23
2019-02-04T22:01:20.476Z,17.35
2019-02-04T22:03:47.933Z,14.85
2019-02-04T22:06:15.371Z,14.20
2019-02-04T22:08:42.809Z,13.75
2019-02-04T22:11:10.238Z,16.45
2019-02-04T22:13:37.630Z,16.90
2019-02-04T22:16:05.110Z,20.08
2019-02-04T22:18:32.843Z,15.85
2019-02-04T22:21:00.331Z,18.90
2019-02-04T22:23:27.793Z,15.48
2019-02-04T22:25:55.595Z,13.38
2019-02-04T22:28:23.025Z,14.80
2019-02-04T22:30:50.594Z,18.27
2019-02-04T22:33:18.036Z,14.55
2019-02-04T22:35:46.003Z,12.55
2019-02-04T22:38:13.424Z,17.32
2019-02-04T22:40:40.830Z,14.65
2019-02-04T22:43:08.289Z,15.30
2019-02-04T22:45:35.731Z,12.85
2019-02-04T22:48:03.406Z,15.32
2019-02-04T22:50:31.288Z,15.88
2019-02-04T22:53:02.117Z,17.70
2019-02-04T22:55:32.035Z,16.25
2019-02-04T22:57:58.219Z,15.98
2019-02-04T23:01:12.503Z,16.93
2019-02-04T23:03:39.900Z,17.90
2019-02-04T23:06:07.339Z,15.72
2019-02-04T23:08:34.793Z,17.65
2019-02-04T23:11:02.178Z,16.05
2019-02-04T23:13:29.578Z,17.80
2019-02-04T23:15:56.999Z,17.57
2019-02-04T23:18:24.389Z,15.32
2019-02-04T23:20:51.699Z,15.25
2019-02-04T23:23:19.128Z,15.13
2019-02-04T23:25:46.530Z,15.00
2019-02-04T23:28:13.996Z,15.70
2019-02-04T23:30:41.382Z,18.15
2019-02-04T23:33:08.827Z,15.53
2019-02-04T23:35:36.201Z,14.35
2019-02-04T23:38:04.666Z,14.98
2019-02-04T23:40:32.095Z,18.17
2019-02-04T23:42:59.545Z,18.30
2019-02-04T23:45:26.953Z,15.70
2019-02-04T23:47:54.392Z,16.93
2019-02-04T23:50:22.069Z,15.65
2019-02-04T23:52:49.523Z,20.75
2019-02-04T23:55:17.312Z,17.17
2019-02-04T23:57:44.735Z,16.80
